createdAt,value
2023-09-10T00:00:34.884Z,7.3
2023-09-10T00:01:43.429Z,8.4
2023-09-10T00:02:51.730Z,8.4
2023-09-10T00:04:00.053Z,8.4
2023-09-10T00:05:08.588Z,6.9
2023-09-10T00:06:16.881Z,6.9
2023-09-10T00:07:25.268Z,6.9
2023-09-10T00:08:33.809Z,7.2
2023-09-10T00:09:42.120Z,7.2
2023-09-10T00:10:50.457Z,7.2
2023-09-10T00:11:58.976Z,8.2
2023-09-10T00:13:07.306Z,8.2
2023-09-10T00:14:15.700Z,8.2
2023-09-10T00:15:24.182Z,7.8
2023-09-10T00:16:33.440Z,7.8
2023-09-10T00:17:40.869Z,7.8
2023-09-10T00:18:49.364Z,9.7
2023-09-10T00:19:58.567Z,9.7
2023-09-10T00:21:06.845Z,9.7
2023-09-10T00:22:15.361Z,7.6
2023-09-10T00:23:23.695Z,7.6
2023-09-10T00:24:32.041Z,7.6
2023-09-10T00:25:40.607Z,7.3
2023-09-10T00:26:48.888Z,7.3
2023-09-10T00:27:57.198Z,7.3
2023-09-10T00:29:05.847Z,7.8
2023-09-10T00:30:14.068Z,7.8
2023-09-10T00:31:22.424Z,7.8
2023-09-10T00:32:30.960Z,8.1
2023-09-10T00:33:39.237Z,8.1
2023-09-10T00:34:47.596Z,8.1
2023-09-10T00:35:56.093Z,9.1
2023-09-10T00:37:04.399Z,9.1
2023-09-10T00:38:12.788Z,9.1
2023-09-10T00:39:21.253Z,9.3
2023-09-10T00:40:29.562Z,9.3
2023-09-10T00:41:37.881Z,9.3
2023-09-10T00:42:46.423Z,8.5
2023-09-10T00:43:54.776Z,8.5
2023-09-10T00:45:03.072Z,8.5
2023-09-10T00:46:11.630Z,9.5
2023-09-10T00:47:19.940Z,9.5
2023-09-10T00:48:28.294Z,9.5
2023-09-10T00:49:36.848Z,8.3
2023-09-10T00:50:45.116Z,8.3
2023-09-10T00:51:53.457Z,8.3
2023-09-10T00:53:02.028Z,8.6
2023-09-10T00:54:10.320Z,8.6
2023-09-10T00:55:18.630Z,8.6
2023-09-10T00:56:27.203Z,9.2
2023-09-10T00:57:35.484Z,9.2
2023-09-10T00:58:43.834Z,9.2
2023-09-10T00:59:52.350Z,8.4
2023-09-10T01:01:00.750Z,8.4
2023-09-10T01:02:09.108Z,8.4
2023-09-10T01:03:17.588Z,8.1
2023-09-10T01:04:25.914Z,8.1
2023-09-10T01:05:34.207Z,8.1
2023-09-10T01:06:42.750Z,7.6
2023-09-10T01:07:51.112Z,7.6
2023-09-10T01:08:59.418Z,7.6
2023-09-10T01:10:07.970Z,9.3
2023-09-10T01:11:16.279Z,9.3
2023-09-10T01:12:24.599Z,9.3
2023-09-10T01:13:33.148Z,8.8
2023-09-10T01:14:41.469Z,8.8
2023-09-10T01:15:49.820Z,8.8
2023-09-10T01:16:58.387Z,8.2
2023-09-10T01:18:06.688Z,8.2
2023-09-10T01:19:14.995Z,8.2
2023-09-10T01:20:23.613Z,8.6
2023-09-10T01:21:31.881Z,8.6
2023-09-10T01:22:40.230Z,8.6
2023-09-10T01:23:48.734Z,8.2
2023-09-10T01:24:57.063Z,8.2
2023-09-10T01:26:05.416Z,8.2
2023-09-10T01:27:13.924Z,8.4
2023-09-10T01:28:22.252Z,8.4
2023-09-10T01:29:30.576Z,8.4
2023-09-10T01:30:39.202Z,8.3
2023-09-10T01:31:47.418Z,8.3
2023-09-10T01:32:55.740Z,8.3
2023-09-10T01:34:04.286Z,9.1
2023-09-10T01:35:12.618Z,9.1
2023-09-10T01:36:20.940Z,9.1
2023-09-10T01:37:29.432Z,9.2
2023-09-10T01:38:37.995Z,9.2
2023-09-10T01:39:46.070Z,9.2
2023-09-10T01:40:54.632Z,7.9
2023-09-10T01:42:02.905Z,7.9
2023-09-10T01:43:11.230Z,7.9
2023-09-10T01:44:19.780Z,7.8
2023-09-10T01:45:28.086Z,7.8
2023-09-10T01:46:36.506Z,7.8
2023-09-10T01:47:44.973Z,8.1
2023-09-10T01:48:53.283Z,8.1
2023-09-10T01:50:01.649Z,8.1
2023-09-10T01:51:10.142Z,8.9
2023-09-10T01:52:18.490Z,8.9
2023-09-10T01:53:26.787Z,8.9
2023-09-10T01:54:35.317Z,9.3
2023-09-10T01:55:43.670Z,9.3
2023-09-10T01:56:51.972Z,9.3
2023-09-10T01:58:00.525Z,9.9
2023-09-10T01:59:08.870Z,9.9
2023-09-10T02:00:17.177Z,9.9
2023-09-10T02:01:25.723Z,8.8
2023-09-10T02:02:34.116Z,8.8
2023-09-10T02:03:42.541Z,8.8
2023-09-10T02:04:50.921Z,10.2
2023-09-10T02:05:59.238Z,10.2
2023-09-10T02:07:07.546Z,10.2
2023-09-10T02:08:16.259Z,8.5
2023-09-10T02:09:24.383Z,8.5
2023-09-10T02:10:32.738Z,8.5
2023-09-10T02:11:41.264Z,11.3
2023-09-10T02:12:49.597Z,11.3
2023-09-10T02:13:57.916Z,11.3
2023-09-10T02:15:06.457Z,10.1
2023-09-10T02:16:14.808Z,10.1
2023-09-10T02:17:23.148Z,10.1
2023-09-10T02:18:31.645Z,12.5
2023-09-10T02:19:40.019Z,12.5
2023-09-10T02:20:48.331Z,12.5
2023-09-10T02:21:56.865Z,12.8
2023-09-10T02:23:05.219Z,12.8
2023-09-10T02:24:13.538Z,12.8
2023-09-10T02:25:22.051Z,11.9
2023-09-10T02:26:30.362Z,11.9
2023-09-10T02:27:38.687Z,11.9
2023-09-10T02:28:47.224Z,11.8
2023-09-10T02:29:55.549Z,11.8
2023-09-10T02:31:03.871Z,11.8
2023-09-10T02:32:12.517Z,12.9
2023-09-10T02:33:20.739Z,12.9
2023-09-10T02:34:29.036Z,12.9
2023-09-10T02:35:37.567Z,13.1
2023-09-10T02:36:45.892Z,13.1
2023-09-10T02:37:54.314Z,13.1
2023-09-10T02:39:02.723Z,12.2
2023-09-10T02:40:11.065Z,12.2
2023-09-10T02:41:19.369Z,12.2
2023-09-10T02:42:27.877Z,10.3
2023-09-10T02:43:36.229Z,10.3
2023-09-10T02:44:44.522Z,10.3
2023-09-10T02:45:53.050Z,11.9
2023-09-10T02:47:01.373Z,11.9
2023-09-10T02:48:09.673Z,11.9
2023-09-10T02:49:18.207Z,11.4
2023-09-10T02:50:26.514Z,11.4
2023-09-10T02:51:34.852Z,11.4
2023-09-10T02:52:43.392Z,10.1
2023-09-10T02:53:51.709Z,10.1
2023-09-10T02:55:00.023Z,10.1
2023-09-10T02:56:08.615Z,9.6
2023-09-10T02:57:16.884Z,9.6
2023-09-10T02:58:25.195Z,9.6
2023-09-10T02:59:33.725Z,10.3
2023-09-10T03:00:42.064Z,10.3
2023-09-10T03:01:50.432Z,10.3
2023-09-10T03:02:58.990Z,12.5
2023-09-10T03:04:07.195Z,12.5
2023-09-10T03:05:15.538Z,12.5
2023-09-10T03:06:24.058Z,10.3
2023-09-10T03:07:32.388Z,10.3
2023-09-10T03:08:40.840Z,10.3
2023-09-10T03:09:49.212Z,12.4
2023-09-10T03:10:57.579Z,12.4
2023-09-10T03:12:05.888Z,12.4
2023-09-10T03:13:14.391Z,9.6
2023-09-10T03:14:22.717Z,9.6
2023-09-10T03:15:31.063Z,9.6
2023-09-10T03:16:39.565Z,10.2
2023-09-10T03:17:47.915Z,10.2
2023-09-10T03:18:56.197Z,10.2
2023-09-10T03:20:04.795Z,10.9
2023-09-10T03:21:13.075Z,10.9
2023-09-10T03:22:21.385Z,10.9
2023-09-10T03:23:29.907Z,10.1
2023-09-10T03:24:38.232Z,10.1
2023-09-10T03:25:46.616Z,10.1
2023-09-10T03:26:55.092Z,11.9
2023-09-10T03:28:03.424Z,11.9
2023-09-10T03:29:11.719Z,11.9
2023-09-10T03:30:20.255Z,10
2023-09-10T03:31:28.599Z,10
2023-09-10T03:32:36.938Z,10
2023-09-10T03:33:45.436Z,9.3
2023-09-10T03:34:53.762Z,9.3
2023-09-10T03:36:02.098Z,9.3
2023-09-10T03:37:10.611Z,10.7
2023-09-10T03:38:18.932Z,10.7
2023-09-10T03:39:27.259Z,10.7
2023-09-10T03:40:35.891Z,9.4
2023-09-10T03:41:44.177Z,9.4
2023-09-10T03:42:52.431Z,9.4
2023-09-10T03:44:01.034Z,9.1
2023-09-10T03:45:09.281Z,9.1
2023-09-10T03:46:17.608Z,9.1
2023-09-10T03:47:26.182Z,8.3
2023-09-10T03:48:34.461Z,8.3
2023-09-10T03:49:42.794Z,8.3
2023-09-10T03:50:51.292Z,9.7
2023-09-10T03:51:59.602Z,9.7
2023-09-10T03:53:07.934Z,9.7
2023-09-10T03:54:16.444Z,9.5
2023-09-10T03:55:24.766Z,9.5
2023-09-10T03:56:33.077Z,9.5
2023-09-10T03:57:41.608Z,9.5
2023-09-10T03:58:49.942Z,9.5
2023-09-10T03:59:58.277Z,9.5
2023-09-10T04:01:06.799Z,8.5
2023-09-10T04:02:15.171Z,8.5
2023-09-10T04:03:23.465Z,8.5
2023-09-10T04:04:31.954Z,10.4
2023-09-10T04:05:40.288Z,10.4
2023-09-10T04:06:48.615Z,10.4
2023-09-10T04:07:57.127Z,9.6
2023-09-10T04:09:05.432Z,9.6
2023-09-10T04:10:13.754Z,9.6
2023-09-10T04:11:22.283Z,10.8
2023-09-10T04:12:30.607Z,10.8
2023-09-10T04:13:38.943Z,10.8
2023-09-10T04:14:47.445Z,8.7
2023-09-10T04:15:55.797Z,8.7
2023-09-10T04:17:04.385Z,8.7
2023-09-10T04:18:12.637Z,11.9
2023-09-10T04:19:20.938Z,11.9
2023-09-10T04:20:29.278Z,11.9
2023-09-10T04:21:37.810Z,8.3
2023-09-10T04:22:46.170Z,8.3
2023-09-10T04:23:57.242Z,8.3
2023-09-10T04:25:02.984Z,8.6
2023-09-10T04:26:11.347Z,8.6
2023-09-10T04:27:19.634Z,8.6
2023-09-10T04:28:28.147Z,10.1
2023-09-10T04:29:36.479Z,10.1
2023-09-10T04:30:44.849Z,10.1
2023-09-10T04:31:53.353Z,9.8
2023-09-10T04:33:01.686Z,9.8
2023-09-10T04:34:09.971Z,9.8
2023-09-10T04:35:18.552Z,8.9
2023-09-10T04:36:26.817Z,8.9
2023-09-10T04:37:35.133Z,8.9
2023-09-10T04:38:43.665Z,9
2023-09-10T04:39:51.983Z,9
2023-09-10T04:41:00.342Z,9
2023-09-10T04:42:08.831Z,7.8
2023-09-10T04:43:17.139Z,7.8
2023-09-10T04:44:25.496Z,7.8
2023-09-10T04:45:34.006Z,8.1
2023-09-10T04:46:42.343Z,8.1
2023-09-10T04:47:50.701Z,8.1
2023-09-10T04:48:59.194Z,8
2023-09-10T04:50:07.556Z,8
2023-09-10T04:51:15.830Z,8
2023-09-10T04:52:24.359Z,7.3
2023-09-10T04:53:32.699Z,7.3
2023-09-10T04:54:41.012Z,7.3
2023-09-10T04:55:49.544Z,9.8
2023-09-10T04:57:00.060Z,9.8
2023-09-10T04:58:06.175Z,9.8
2023-09-10T04:59:14.735Z,8.8
2023-09-10T05:00:23.027Z,8.8
2023-09-10T05:01:31.368Z,8.8
2023-09-10T05:02:40.005Z,8
2023-09-10T05:03:48.309Z,8
2023-09-10T05:04:56.591Z,8
2023-09-10T05:06:05.089Z,7.8
2023-09-10T05:07:13.423Z,7.8
2023-09-10T05:08:21.767Z,7.8
2023-09-10T05:09:30.293Z,8
2023-09-10T05:10:38.778Z,8
2023-09-10T05:11:46.945Z,8
2023-09-10T05:12:55.471Z,7.2
2023-09-10T05:14:03.820Z,7.2
2023-09-10T05:15:12.108Z,7.2
2023-09-10T05:16:20.670Z,7.6
2023-09-10T05:17:29.055Z,7.6
2023-09-10T05:18:37.409Z,7.6
2023-09-10T05:19:45.837Z,8.5
2023-09-10T05:20:54.104Z,8.5
2023-09-10T05:22:02.421Z,8.5
2023-09-10T05:23:10.977Z,7.2
2023-09-10T05:24:19.271Z,7.2
2023-09-10T05:25:27.584Z,7.2
2023-09-10T05:26:36.101Z,7.7
2023-09-10T05:27:44.428Z,7.7
2023-09-10T05:28:52.775Z,7.7
2023-09-10T05:30:01.301Z,7.9
2023-09-10T05:31:09.611Z,7.9
2023-09-10T05:32:18.007Z,7.9
2023-09-10T05:33:26.469Z,7.7
2023-09-10T05:34:34.780Z,7.7
2023-09-10T05:35:43.124Z,7.7
2023-09-10T05:36:51.625Z,7.2
2023-09-10T05:37:59.956Z,7.2
2023-09-10T05:39:08.262Z,7.2
2023-09-10T05:40:16.786Z,7.2
2023-09-10T05:41:25.170Z,7.2
2023-09-10T05:42:33.430Z,7.2
2023-09-10T05:43:41.972Z,7.4
2023-09-10T05:44:50.279Z,7.4
2023-09-10T05:45:58.695Z,7.4
2023-09-10T05:47:07.147Z,7.5
2023-09-10T05:48:15.454Z,7.5
2023-09-10T05:49:23.782Z,7.5
2023-09-10T05:50:32.348Z,7.1
2023-09-10T05:51:40.813Z,7.1
2023-09-10T05:52:49.039Z,7.1
2023-09-10T05:53:57.553Z,7.9
2023-09-10T05:55:05.868Z,7.9
2023-09-10T05:56:14.218Z,7.9
2023-09-10T05:57:22.715Z,8.4
2023-09-10T05:58:31.040Z,8.4
2023-09-10T05:59:39.360Z,8.4
2023-09-10T06:00:47.887Z,6.8
2023-09-10T06:01:56.256Z,6.8
2023-09-10T06:03:04.564Z,6.8
2023-09-10T06:04:13.118Z,6.7
2023-09-10T06:05:21.427Z,6.7
2023-09-10T06:06:29.747Z,6.7
2023-09-10T06:07:38.302Z,8
2023-09-10T06:08:46.621Z,8
2023-09-10T06:09:54.951Z,8
2023-09-10T06:11:03.514Z,6.9
2023-09-10T06:12:11.801Z,6.9
2023-09-10T06:13:20.123Z,6.9
2023-09-10T06:14:28.654Z,6.3
2023-09-10T06:15:36.979Z,6.3
2023-09-10T06:16:45.316Z,6.3
2023-09-10T06:17:53.871Z,6.8
2023-09-10T06:19:02.189Z,6.8
2023-09-10T06:20:10.834Z,6.8
2023-09-10T06:21:19.361Z,7.2
2023-09-10T06:22:27.686Z,7.2
2023-09-10T06:23:36.048Z,7.2
2023-09-10T06:24:44.566Z,6.9
2023-09-10T06:25:52.909Z,6.9
2023-09-10T06:27:01.216Z,6.9
2023-09-10T06:28:09.751Z,6.6
2023-09-10T06:29:18.115Z,6.6
2023-09-10T06:30:26.434Z,6.6
2023-09-10T06:31:35.021Z,9.8
2023-09-10T06:32:43.347Z,9.8
2023-09-10T06:33:51.624Z,9.8
2023-09-10T06:35:00.245Z,6.4
2023-09-10T06:36:08.478Z,6.4
2023-09-10T06:37:16.822Z,6.4
2023-09-10T06:38:25.395Z,7
2023-09-10T06:39:33.763Z,7
2023-09-10T06:40:42.085Z,7
2023-09-10T06:41:50.580Z,7.3
2023-09-10T06:42:58.930Z,7.3
2023-09-10T06:44:07.296Z,7.3
2023-09-10T06:45:15.781Z,13.9
2023-09-10T06:46:24.178Z,13.9
2023-09-10T06:47:32.403Z,13.9
2023-09-10T06:48:41.191Z,12.1
2023-09-10T06:49:49.313Z,12.1
2023-09-10T06:50:57.591Z,12.1
2023-09-10T06:52:06.121Z,9.7
2023-09-10T06:53:14.469Z,9.7
2023-09-10T06:54:22.760Z,9.7
2023-09-10T06:55:31.317Z,7.6
2023-09-10T06:56:39.645Z,7.6
2023-09-10T06:57:47.925Z,7.6
2023-09-10T06:58:56.537Z,7.6
2023-09-10T07:00:04.761Z,7.6
2023-09-10T07:01:13.110Z,7.6
2023-09-10T07:02:21.684Z,7.2
2023-09-10T07:03:29.952Z,7.2
2023-09-10T07:04:38.281Z,7.2
2023-09-10T07:05:46.937Z,6.6
2023-09-10T07:06:55.151Z,6.6
2023-09-10T07:08:03.536Z,6.6
2023-09-10T07:09:11.998Z,6.5
2023-09-10T07:10:20.337Z,6.5
2023-09-10T07:11:28.703Z,6.5
2023-09-10T07:12:37.209Z,7.6
2023-09-10T07:13:45.597Z,7.6
2023-09-10T07:14:53.876Z,7.6
2023-09-10T07:16:02.474Z,8.3
2023-09-10T07:17:10.771Z,8.3
2023-09-10T07:18:19.087Z,8.3
2023-09-10T07:19:27.636Z,8
2023-09-10T07:20:35.980Z,8
2023-09-10T07:21:44.442Z,8
2023-09-10T07:22:52.860Z,5.9
2023-09-10T07:24:01.174Z,5.9
2023-09-10T07:25:09.514Z,5.9
2023-09-10T07:26:18.065Z,7.3
2023-09-10T07:27:26.389Z,7.3
2023-09-10T07:28:34.715Z,7.3
2023-09-10T07:29:43.217Z,7.7
2023-09-10T07:30:51.596Z,7.7
2023-09-10T07:31:59.912Z,7.7
2023-09-10T07:33:08.492Z,9.9
2023-09-10T07:34:16.759Z,9.9
2023-09-10T07:35:25.136Z,9.9
2023-09-10T07:36:33.651Z,8.3
2023-09-10T07:37:41.983Z,8.3
2023-09-10T07:38:50.331Z,8.3
2023-09-10T07:39:58.901Z,6.4
2023-09-10T07:41:07.253Z,6.4
2023-09-10T07:42:15.547Z,6.4
2023-09-10T07:43:24.166Z,7.1
2023-09-10T07:44:32.466Z,7.1
2023-09-10T07:45:40.809Z,7.1
2023-09-10T07:46:49.328Z,8.4
2023-09-10T07:47:57.720Z,8.4
2023-09-10T07:49:05.945Z,8.4
2023-09-10T07:50:14.506Z,7.6
2023-09-10T07:51:22.827Z,7.6
2023-09-10T07:52:31.165Z,7.6
2023-09-10T07:53:39.756Z,6.3
2023-09-10T07:54:48.057Z,6.3
2023-09-10T07:55:56.409Z,6.3
2023-09-10T07:57:04.916Z,8.5
2023-09-10T07:58:13.249Z,8.5
2023-09-10T07:59:21.618Z,8.5
2023-09-10T08:00:30.106Z,7.6
2023-09-10T08:01:38.465Z,7.6
2023-09-10T08:02:46.811Z,7.6
2023-09-10T08:03:55.370Z,6.8
2023-09-10T08:05:03.700Z,6.8
2023-09-10T08:06:12.026Z,6.8
2023-09-10T08:07:20.559Z,6.5
2023-09-10T08:08:28.886Z,6.5
2023-09-10T08:09:37.209Z,6.5
2023-09-10T08:10:45.812Z,6.9
2023-09-10T08:11:54.109Z,6.9
2023-09-10T08:13:02.453Z,6.9
2023-09-10T08:14:11.063Z,7.9
2023-09-10T08:15:19.348Z,7.9
2023-09-10T08:16:27.692Z,7.9
2023-09-10T08:17:36.245Z,6.7
2023-09-10T08:18:44.581Z,6.7
2023-09-10T08:19:52.897Z,6.7
2023-09-10T08:21:01.430Z,6.2
2023-09-10T08:22:09.764Z,6.2
2023-09-10T08:23:18.111Z,6.2
2023-09-10T08:24:26.618Z,7.3
2023-09-10T08:25:34.940Z,7.3
2023-09-10T08:26:43.328Z,7.3
2023-09-10T08:27:51.828Z,8.3
2023-09-10T08:29:00.185Z,8.3
2023-09-10T08:30:08.498Z,8.3
2023-09-10T08:31:17.085Z,7.1
2023-09-10T08:32:25.430Z,7.1
2023-09-10T08:33:33.689Z,7.1
2023-09-10T08:34:42.261Z,6.9
2023-09-10T08:35:50.602Z,6.9
2023-09-10T08:36:58.929Z,6.9
2023-09-10T08:38:07.489Z,7.6
2023-09-10T08:39:15.796Z,7.6
2023-09-10T08:40:24.133Z,7.6
2023-09-10T08:41:32.753Z,7.1
2023-09-10T08:42:41.004Z,7.1
2023-09-10T08:43:49.330Z,7.1
2023-09-10T08:44:57.886Z,6.9
2023-09-10T08:46:06.232Z,6.9
2023-09-10T08:47:14.602Z,6.9
2023-09-10T08:48:23.075Z,7.3
2023-09-10T08:49:31.414Z,7.3
2023-09-10T08:50:39.768Z,7.3
2023-09-10T08:51:48.314Z,7.8
2023-09-10T08:52:56.655Z,7.8
2023-09-10T08:54:04.954Z,7.8
2023-09-10T08:55:13.490Z,9
2023-09-10T08:56:21.842Z,9
2023-09-10T08:57:30.134Z,9
2023-09-10T08:58:39.324Z,8.7
2023-09-10T08:59:46.992Z,8.7
2023-09-10T09:00:55.401Z,8.7
2023-09-10T09:02:03.984Z,8.4
2023-09-10T09:03:12.360Z,8.4
2023-09-10T09:04:20.580Z,8.4
2023-09-10T09:05:29.141Z,7
2023-09-10T09:06:37.494Z,7
2023-09-10T09:07:45.798Z,7
2023-09-10T09:10:02.650Z,9.8
2023-09-10T09:11:10.995Z,9.8
2023-09-10T09:12:19.535Z,8.3
2023-09-10T09:13:27.888Z,8.3
2023-09-10T09:14:36.225Z,8.3
2023-09-10T09:15:44.757Z,7.5
2023-09-10T09:16:53.161Z,7.5
2023-09-10T09:18:01.612Z,7.5
2023-09-10T09:19:10.001Z,7.7
2023-09-10T09:20:18.369Z,7.7
2023-09-10T09:21:26.620Z,7.7
2023-09-10T09:22:35.312Z,7.6
2023-09-10T09:23:43.514Z,7.6
2023-09-10T09:24:51.824Z,7.6
2023-09-10T09:26:00.355Z,7.8
2023-09-10T09:27:08.706Z,7.8
2023-09-10T09:28:17.045Z,7.8
2023-09-10T09:29:25.650Z,6.6
2023-09-10T09:30:33.938Z,6.6
2023-09-10T09:31:42.253Z,6.6
2023-09-10T09:32:50.818Z,7.7
2023-09-10T09:33:59.090Z,7.7
2023-09-10T09:35:07.477Z,7.7
2023-09-10T09:36:15.967Z,6.9
2023-09-10T09:37:24.307Z,6.9
2023-09-10T09:38:32.651Z,6.9
2023-09-10T09:39:41.161Z,6.6
2023-09-10T09:40:49.510Z,6.6
2023-09-10T09:41:57.842Z,6.6
2023-09-10T09:43:18.998Z,7.3
2023-09-10T09:44:14.749Z,7.3
2023-09-10T09:45:23.031Z,7.3
2023-09-10T09:46:31.577Z,7.5
2023-09-10T09:47:39.903Z,7.5
2023-09-10T09:48:48.208Z,7.5
2023-09-10T09:49:56.770Z,7.4
2023-09-10T09:51:05.117Z,7.4
2023-09-10T09:52:13.420Z,7.4
2023-09-10T09:53:21.989Z,6
2023-09-10T09:54:30.333Z,6
2023-09-10T09:55:38.632Z,6
2023-09-10T09:56:47.156Z,5.7
2023-09-10T09:57:55.509Z,5.7
2023-09-10T09:59:03.915Z,5.7
2023-09-10T10:00:12.431Z,6.4
2023-09-10T10:01:20.766Z,6.4
2023-09-10T10:02:29.148Z,6.4
2023-09-10T10:03:37.619Z,6.2
2023-09-10T10:04:45.958Z,6.2
2023-09-10T10:05:54.273Z,6.2
2023-09-10T10:07:09.497Z,6.8
2023-09-10T10:08:11.156Z,6.8
2023-09-10T10:09:19.484Z,6.8
2023-09-10T10:10:28.034Z,6.4
2023-09-10T10:11:36.367Z,6.4
2023-09-10T10:12:44.709Z,6.4
2023-09-10T10:13:53.271Z,7.8
2023-09-10T10:15:01.569Z,7.8
2023-09-10T10:16:09.954Z,7.8
2023-09-10T10:17:18.478Z,6.6
2023-09-10T10:18:29.057Z,6.6
2023-09-10T10:19:35.102Z,6.6
2023-09-10T10:20:43.644Z,6.3
2023-09-10T10:21:51.993Z,6.3
2023-09-10T10:23:08.556Z,6.3
2023-09-10T10:24:08.941Z,6.8
2023-09-10T10:25:17.208Z,6.8
2023-09-10T10:26:25.688Z,6.8
2023-09-10T10:27:34.112Z,7.9
2023-09-10T10:28:42.458Z,7.9
2023-09-10T10:29:50.773Z,7.9
2023-09-10T10:30:59.323Z,6.3
2023-09-10T10:32:07.736Z,6.3
2023-09-10T10:33:15.998Z,6.3
2023-09-10T10:34:24.520Z,6.9
2023-09-10T10:35:32.936Z,6.9
2023-09-10T10:36:41.185Z,6.9
2023-09-10T10:37:49.794Z,6.3
2023-09-10T10:38:58.104Z,6.3
2023-09-10T10:40:06.398Z,6.3
2023-09-10T10:41:15.012Z,6
2023-09-10T10:42:23.279Z,6
2023-09-10T10:43:31.610Z,6
2023-09-10T10:44:40.190Z,6.8
2023-09-10T10:45:48.570Z,6.8
2023-09-10T10:46:56.854Z,6.8
2023-09-10T10:48:05.416Z,6.5
2023-09-10T10:49:13.730Z,6.5
2023-09-10T10:50:22.108Z,6.5
2023-09-10T10:51:39.000Z,6.7
2023-09-10T10:52:38.923Z,6.7
2023-09-10T10:53:47.256Z,6.7
2023-09-10T10:54:55.830Z,7.1
2023-09-10T10:56:04.166Z,7.1
2023-09-10T10:57:12.472Z,7.1
2023-09-10T10:58:21.001Z,7.5
2023-09-10T10:59:29.343Z,7.5
2023-09-10T11:00:37.694Z,7.5
2023-09-10T11:01:46.273Z,5.6
2023-09-10T11:02:54.599Z,5.6
2023-09-10T11:04:02.910Z,5.6
2023-09-10T11:05:11.502Z,6.2
2023-09-10T11:06:19.808Z,6.2
2023-09-10T11:07:28.136Z,6.2
2023-09-10T11:08:36.695Z,6.5
2023-09-10T11:09:45.061Z,6.5
2023-09-10T11:10:53.425Z,6.5
2023-09-10T11:12:01.956Z,6.7
2023-09-10T11:13:10.302Z,6.7
2023-09-10T11:14:18.661Z,6.7
2023-09-10T11:15:27.200Z,6.3
2023-09-10T11:16:35.732Z,6.3
2023-09-10T11:17:45.956Z,6.3
2023-09-10T11:18:54.492Z,7.3
2023-09-10T11:20:02.939Z,7.3
2023-09-10T11:21:11.651Z,7.3
2023-09-10T11:22:20.108Z,6.6
2023-09-10T11:23:28.464Z,6.6
2023-09-10T11:24:45.694Z,6.6
2023-09-10T11:26:00.087Z,6.9
2023-09-10T11:27:10.383Z,6.9
2023-09-10T11:28:20.526Z,6.9
2023-09-10T11:29:29.058Z,6.4
2023-09-10T11:30:37.402Z,6.4
2023-09-10T11:31:45.814Z,6.4
2023-09-10T11:32:55.654Z,7.4
2023-09-10T11:34:08.852Z,7.4
2023-09-10T11:35:17.224Z,7.4
2023-09-10T11:36:25.800Z,6.3
2023-09-10T11:37:34.131Z,6.3
2023-09-10T11:38:42.483Z,6.3
2023-09-10T11:39:51.022Z,6.7
2023-09-10T11:40:59.421Z,6.7
2023-09-10T11:42:08.961Z,6.7
2023-09-10T11:43:18.595Z,6.3
2023-09-10T11:44:28.062Z,6.3
2023-09-10T11:45:36.398Z,6.3
2023-09-10T11:46:47.194Z,6.2
2023-09-10T11:47:55.222Z,6.2
2023-09-10T11:49:10.722Z,6.2
2023-09-10T11:50:19.332Z,7.1
2023-09-10T11:51:27.636Z,7.1
2023-09-10T11:52:35.992Z,7.1
2023-09-10T11:53:48.554Z,6
2023-09-10T11:54:56.873Z,6
2023-09-10T11:56:17.819Z,6
2023-09-10T11:57:23.918Z,6.1
2023-09-10T11:58:32.267Z,6.1
2023-09-10T11:59:40.661Z,6.1
2023-09-10T12:00:49.976Z,5.8
2023-09-10T12:02:03.648Z,5.8
2023-09-10T12:03:12.098Z,5.8
2023-09-10T12:04:20.509Z,5.9
2023-09-10T12:05:30.709Z,5.9
2023-09-10T12:06:37.200Z,5.9
2023-09-10T12:07:45.730Z,6.4
2023-09-10T12:08:54.075Z,6.4
2023-09-10T12:10:02.415Z,6.4
2023-09-10T12:11:10.976Z,5.8
2023-09-10T12:12:19.284Z,5.8
2023-09-10T12:13:27.659Z,5.8
2023-09-10T12:14:36.208Z,5.8
2023-09-10T12:15:44.599Z,5.8
2023-09-10T12:16:52.909Z,5.8
2023-09-10T12:18:01.441Z,6
2023-09-10T12:19:09.744Z,6
2023-09-10T12:20:18.134Z,6
2023-09-10T12:21:26.632Z,5.8
2023-09-10T12:22:34.970Z,5.8
2023-09-10T12:23:43.528Z,5.8
2023-09-10T12:24:51.847Z,5.9
2023-09-10T12:26:00.276Z,5.9
2023-09-10T12:27:08.559Z,5.9
2023-09-10T12:28:17.156Z,5.3
2023-09-10T12:29:25.514Z,5.3
2023-09-10T12:30:33.776Z,5.3
2023-09-10T12:31:42.303Z,5.9
2023-09-10T12:32:50.654Z,5.9
2023-09-10T12:33:59.334Z,5.9
2023-09-10T12:35:07.902Z,5.7
2023-09-10T12:36:16.215Z,5.7
2023-09-10T12:37:24.566Z,5.7
2023-09-10T12:38:33.125Z,5.7
2023-09-10T12:39:41.464Z,5.7
2023-09-10T12:40:49.883Z,5.7
2023-09-10T12:41:58.435Z,5.6
2023-09-10T12:43:06.776Z,5.6
2023-09-10T12:44:15.188Z,5.6
2023-09-10T12:45:23.726Z,5.5
2023-09-10T12:46:32.084Z,5.5
2023-09-10T12:47:40.435Z,5.5
2023-09-10T12:48:48.921Z,6
2023-09-10T12:49:57.291Z,6
2023-09-10T12:51:05.613Z,6
2023-09-10T12:52:14.355Z,5.8
2023-09-10T12:53:25.832Z,5.8
2023-09-10T12:54:36.656Z,5.8
2023-09-10T12:55:45.673Z,7.3
2023-09-10T12:56:58.768Z,7.3
2023-09-10T12:58:13.067Z,7.3
2023-09-10T12:59:21.834Z,5.1
2023-09-10T13:00:31.154Z,5.1
2023-09-10T13:01:41.507Z,5.1
2023-09-10T13:02:59.699Z,5.8
2023-09-10T13:04:08.029Z,5.8
2023-09-10T13:05:19.303Z,5.8
2023-09-10T13:06:30.193Z,5.9
2023-09-10T13:07:38.550Z,5.9
2023-09-10T13:08:46.915Z,5.9
2023-09-10T13:09:55.469Z,6.1
2023-09-10T13:11:03.886Z,6.1
2023-09-10T13:12:12.168Z,6.1
2023-09-10T13:13:20.742Z,7
2023-09-10T13:14:29.091Z,7
2023-09-10T13:15:37.429Z,7
2023-09-10T13:16:46.841Z,8.1
2023-09-10T13:17:55.206Z,8.1
2023-09-10T13:19:03.513Z,8.1
2023-09-10T13:20:12.047Z,5.7
2023-09-10T13:21:20.355Z,5.7
2023-09-10T13:22:28.696Z,5.7
2023-09-10T13:23:37.249Z,7.3
2023-09-10T13:24:45.594Z,7.3
2023-09-10T13:25:53.925Z,7.3
2023-09-10T13:27:02.477Z,5.6
2023-09-10T13:28:19.069Z,5.6
2023-09-10T13:29:36.243Z,5.6
2023-09-10T13:30:41.269Z,6.2
2023-09-10T13:33:55.475Z,6.2
2023-09-10T13:37:13.748Z,5.4
2023-09-10T13:38:31.191Z,5.4
2023-09-10T13:39:41.823Z,5.1
2023-09-10T13:40:50.019Z,5.1
2023-09-10T13:41:58.717Z,5.1
2023-09-10T13:43:07.662Z,5.4
2023-09-10T13:44:16.066Z,5.4
2023-09-10T13:45:25.711Z,5.4
2023-09-10T13:46:53.158Z,5.7
2023-09-10T13:48:06.329Z,5.7
2023-09-10T13:51:24.878Z,5.6
2023-09-10T13:52:45.233Z,5.6
2023-09-10T13:53:55.199Z,5.6
2023-09-10T13:55:09.484Z,5.1
2023-09-10T13:56:23.363Z,5.1
2023-09-10T13:59:01.911Z,5.4
2023-09-10T14:00:10.650Z,5.4
2023-09-10T14:01:22.337Z,5.4
2023-09-10T14:04:06.563Z,6.7
2023-09-10T14:05:17.040Z,6.7
2023-09-10T14:06:29.269Z,5.5
2023-09-10T14:07:41.217Z,5.5
2023-09-10T14:08:51.221Z,5.5
2023-09-10T14:10:00.079Z,6
2023-09-10T14:11:35.380Z,6
2023-09-10T14:12:54.649Z,6
2023-09-10T14:14:08.332Z,5.3
2023-09-10T14:15:18.051Z,5.3
2023-09-10T14:16:29.660Z,5.3
2023-09-10T14:17:38.596Z,5.4
2023-09-10T14:19:03.933Z,5.4
2023-09-10T14:20:51.388Z,5.4
2023-09-10T14:22:09.299Z,6.1
2023-09-10T14:24:35.955Z,6.1
2023-09-10T14:25:44.528Z,7.2
2023-09-10T14:26:52.876Z,7.2
2023-09-10T14:28:01.231Z,7.2
2023-09-10T14:29:09.784Z,5.3
2023-09-10T14:30:18.106Z,5.3
2023-09-10T14:31:26.474Z,5.3
2023-09-10T14:32:36.773Z,5.3
2023-09-10T14:33:43.736Z,5.3
2023-09-10T14:34:51.687Z,5.3
2023-09-10T14:36:00.255Z,6.2
2023-09-10T14:37:08.587Z,6.2
2023-09-10T14:38:16.907Z,6.2
2023-09-10T14:39:25.451Z,5.2
2023-09-10T14:40:33.780Z,5.2
2023-09-10T14:41:42.150Z,5.2
2023-09-10T14:42:50.682Z,6.2
2023-09-10T14:43:59.028Z,6.2
2023-09-10T14:45:07.360Z,6.2
2023-09-10T14:46:15.946Z,6
2023-09-10T14:47:24.326Z,6
2023-09-10T14:48:32.609Z,6
2023-09-10T14:49:41.184Z,5.7
2023-09-10T14:50:49.540Z,5.7
2023-09-10T14:51:57.954Z,5.7
2023-09-10T14:53:06.500Z,5.6
2023-09-10T14:54:14.816Z,5.6
2023-09-10T14:55:23.159Z,5.6
2023-09-10T14:56:31.757Z,5.8
2023-09-10T14:57:40.103Z,5.8
2023-09-10T14:58:48.467Z,5.8
2023-09-10T14:59:57.028Z,7.7
2023-09-10T15:01:05.361Z,7.7
2023-09-10T15:02:13.734Z,7.7
2023-09-10T15:03:22.328Z,5.5
2023-09-10T15:04:30.603Z,5.5
2023-09-10T15:05:38.924Z,5.5
2023-09-10T15:06:47.513Z,5.4
2023-09-10T15:07:55.826Z,5.4
2023-09-10T15:09:04.152Z,5.4
2023-09-10T15:10:12.689Z,5.5
2023-09-10T15:45:09.069Z,0
2023-09-10T15:46:17.381Z,0
2023-09-10T15:47:25.765Z,0
2023-09-10T15:48:34.264Z,6.6
2023-09-10T15:49:42.583Z,6.6
2023-09-10T15:50:50.944Z,6.6
2023-09-10T15:51:59.614Z,7.6
2023-09-10T15:53:07.972Z,7.6
2023-09-10T15:54:16.279Z,7.6
2023-09-10T15:55:24.830Z,7.2
2023-09-10T15:56:33.216Z,7.2
2023-09-10T15:57:41.514Z,7.2
2023-09-10T15:58:50.038Z,6
2023-09-10T15:59:58.383Z,6
2023-09-10T16:01:06.779Z,6
2023-09-10T16:02:15.355Z,6.2
2023-09-10T16:03:23.773Z,6.2
2023-09-10T16:04:31.974Z,6.2
2023-09-10T16:05:40.572Z,6.9
2023-09-10T16:06:48.880Z,6.9
2023-09-10T16:07:57.209Z,6.9
2023-09-10T16:09:07.060Z,6.4
2023-09-10T16:10:14.118Z,6.4
2023-09-10T16:11:22.485Z,6.4
2023-09-10T16:12:31.008Z,5.3
2023-09-10T16:13:39.527Z,5.3
2023-09-10T16:14:47.691Z,5.3
2023-09-10T16:15:56.225Z,6.9
2023-09-10T16:17:04.699Z,6.9
2023-09-10T16:18:12.965Z,6.9
2023-09-10T16:19:21.464Z,6.8
2023-09-10T16:20:29.835Z,6.8
2023-09-10T16:21:38.136Z,6.8
2023-09-10T16:22:46.691Z,7.2
2023-09-10T16:23:55.063Z,7.2
2023-09-10T16:25:03.422Z,7.2
2023-09-10T16:26:11.995Z,8.9
2023-09-10T16:27:20.308Z,8.9
2023-09-10T16:28:28.666Z,8.9
2023-09-10T16:29:37.218Z,8.8
2023-09-10T16:30:45.685Z,8.8
2023-09-10T16:31:53.872Z,8.8
2023-09-10T16:33:02.497Z,9.9
2023-09-10T16:34:10.775Z,9.9